sensor_id;sensor_type;location;lat;lon;timestamp;temperature;humidity
13186;DHT22;6658;53.080;7.428;2023-06-22T00:01:27;17.50;99.90
13186;DHT22;6658;53.080;7.428;2023-06-22T00:03:53;17.50;99.90
13186;DHT22;6658;53.080;7.428;2023-06-22T00:06:19;17.50;99.90
13186;DHT22;6658;53.080;7.428;2023-06-22T00:08:45;17.40;99.90
13186;DHT22;6658;53.080;7.428;2023-06-22T00:11:11;17.50;99.90
13186;DHT22;6658;53.080;7.428;2023-06-22T00:13:37;17.50;99.90
13186;DHT22;6658;53.080;7.428;2023-06-22T00:16:04;17.50;99.90
13186;DHT22;6658;53.080;7.428;2023-06-22T00:18:29;17.50;99.90
13186;DHT22;6658;53.080;7.428;2023-06-22T00:20:56;17.50;99.90
13186;DHT22;6658;53.080;7.428;2023-06-22T00:23:24;17.50;99.90
13186;DHT22;6658;53.080;7.428;2023-06-22T00:25:50;17.40;99.90
13186;DHT22;6658;53.080;7.428;2023-06-22T00:28:16;17.50;99.90
13186;DHT22;6658;53.080;7.428;2023-06-22T00:30:42;17.50;99.90
13186;DHT22;6658;53.080;7.428;2023-06-22T00:33:08;17.50;99.90
13186;DHT22;6658;53.080;7.428;2023-06-22T00:35:34;17.50;99.90
13186;DHT22;6658;53.080;7.428;2023-06-22T00:38:00;17.40;99.90
13186;DHT22;6658;53.080;7.428;2023-06-22T00:40:27;17.40;99.90
13186;DHT22;6658;53.080;7.428;2023-06-22T00:42:54;17.30;99.90
13186;DHT22;6658;53.080;7.428;2023-06-22T00:45:20;17.30;99.90
13186;DHT22;6658;53.080;7.428;2023-06-22T00:47:47;17.30;99.90
13186;DHT22;6658;53.080;7.428;2023-06-22T00:50:21;17.30;99.90
13186;DHT22;6658;53.080;7.428;2023-06-22T00:52:51;17.20;99.90
13186;DHT22;6658;53.080;7.428;2023-06-22T00:55:21;17.20;99.90
13186;DHT22;6658;53.080;7.428;2023-06-22T00:57:47;17.20;99.90
13186;DHT22;6658;53.080;7.428;2023-06-22T01:00:16;17.20;99.90
13186;DHT22;6658;53.080;7.428;2023-06-22T01:02:46;17.20;99.90
13186;DHT22;6658;53.080;7.428;2023-06-22T01:05:18;17.20;99.90
13186;DHT22;6658;53.080;7.428;2023-06-22T01:12:55;17.10;99.90
13186;DHT22;6658;53.080;7.428;2023-06-22T01:15:32;17.10;99.90
13186;DHT22;6658;53.080;7.428;2023-06-22T01:17:59;17.10;99.90
13186;DHT22;6658;53.080;7.428;2023-06-22T01:20:28;17.10;99.90
13186;DHT22;6658;53.080;7.428;2023-06-22T01:23:10;17.10;99.90
13186;DHT22;6658;53.080;7.428;2023-06-22T01:28:49;17.00;99.90
13186;DHT22;6658;53.080;7.428;2023-06-22T01:31:23;17.00;99.90
13186;DHT22;6658;53.080;7.428;2023-06-22T01:33:53;16.90;99.90
13186;DHT22;6658;53.080;7.428;2023-06-22T01:36:20;16.90;99.90
13186;DHT22;6658;53.080;7.428;2023-06-22T01:38:47;16.80;99.90
13186;DHT22;6658;53.080;7.428;2023-06-22T01:41:13;16.80;99.90
13186;DHT22;6658;53.080;7.428;2023-06-22T01:43:40;16.70;99.90
13186;DHT22;6658;53.080;7.428;2023-06-22T01:46:07;16.70;99.90
13186;DHT22;6658;53.080;7.428;2023-06-22T01:48:33;16.70;99.90
13186;DHT22;6658;53.080;7.428;2023-06-22T01:50:59;16.70;99.90
13186;DHT22;6658;53.080;7.428;2023-06-22T01:53:25;16.70;99.90
13186;DHT22;6658;53.080;7.428;2023-06-22T01:55:51;16.60;99.90
13186;DHT22;6658;53.080;7.428;2023-06-22T01:58:19;16.50;99.90
13186;DHT22;6658;53.080;7.428;2023-06-22T02:00:53;16.50;99.90
13186;DHT22;6658;53.080;7.428;2023-06-22T02:03:32;16.50;99.90
13186;DHT22;6658;53.080;7.428;2023-06-22T02:06:05;16.50;99.90
13186;DHT22;6658;53.080;7.428;2023-06-22T02:08:41;16.40;99.90
13186;DHT22;6658;53.080;7.428;2023-06-22T02:11:09;16.40;99.90
13186;DHT22;6658;53.080;7.428;2023-06-22T02:13:37;16.40;99.90
13186;DHT22;6658;53.080;7.428;2023-06-22T02:16:04;16.30;99.90
13186;DHT22;6658;53.080;7.428;2023-06-22T02:18:29;16.30;99.90
13186;DHT22;6658;53.080;7.428;2023-06-22T02:20:55;16.30;99.90
13186;DHT22;6658;53.080;7.428;2023-06-22T02:23:21;16.20;99.90
13186;DHT22;6658;53.080;7.428;2023-06-22T02:25:46;16.30;99.90
13186;DHT22;6658;53.080;7.428;2023-06-22T02:28:12;16.30;99.90
13186;DHT22;6658;53.080;7.428;2023-06-22T02:30:38;16.20;99.90
13186;DHT22;6658;53.080;7.428;2023-06-22T02:33:04;16.10;99.90
13186;DHT22;6658;53.080;7.428;2023-06-22T02:35:30;16.10;99.90
13186;DHT22;6658;53.080;7.428;2023-06-22T02:38:02;16.10;99.90
13186;DHT22;6658;53.080;7.428;2023-06-22T02:40:28;16.00;99.90
13186;DHT22;6658;53.080;7.428;2023-06-22T02:42:55;16.00;99.90
13186;DHT22;6658;53.080;7.428;2023-06-22T02:45:23;16.00;99.90
13186;DHT22;6658;53.080;7.428;2023-06-22T02:47:49;16.00;99.90
13186;DHT22;6658;53.080;7.428;2023-06-22T02:50:15;16.00;99.90
13186;DHT22;6658;53.080;7.428;2023-06-22T02:52:40;15.90;99.90
13186;DHT22;6658;53.080;7.428;2023-06-22T02:55:06;15.90;99.90
13186;DHT22;6658;53.080;7.428;2023-06-22T02:57:35;15.90;99.90
13186;DHT22;6658;53.080;7.428;2023-06-22T03:00:03;15.90;99.90
13186;DHT22;6658;53.080;7.428;2023-06-22T03:02:40;15.90;99.90
13186;DHT22;6658;53.080;7.428;2023-06-22T03:05:06;15.90;99.90
13186;DHT22;6658;53.080;7.428;2023-06-22T03:07:32;15.90;99.90
13186;DHT22;6658;53.080;7.428;2023-06-22T03:09:57;15.90;99.90
13186;DHT22;6658;53.080;7.428;2023-06-22T03:12:23;15.90;99.90
13186;DHT22;6658;53.080;7.428;2023-06-22T03:14:49;15.90;99.90
13186;DHT22;6658;53.080;7.428;2023-06-22T03:17:14;15.90;99.90
13186;DHT22;6658;53.080;7.428;2023-06-22T03:19:40;15.90;99.90
13186;DHT22;6658;53.080;7.428;2023-06-22T03:22:06;15.90;99.90
13186;DHT22;6658;53.080;7.428;2023-06-22T03:24:32;15.90;99.90
13186;DHT22;6658;53.080;7.428;2023-06-22T03:27:00;15.90;99.90
13186;DHT22;6658;53.080;7.428;2023-06-22T03:29:25;15.90;99.90
13186;DHT22;6658;53.080;7.428;2023-06-22T03:31:51;15.90;99.90
13186;DHT22;6658;53.080;7.428;2023-06-22T03:34:17;15.90;99.90
13186;DHT22;6658;53.080;7.428;2023-06-22T03:36:42;15.90;99.90
13186;DHT22;6658;53.080;7.428;2023-06-22T03:39:10;15.90;99.90
13186;DHT22;6658;53.080;7.428;2023-06-22T03:41:36;15.90;99.90
13186;DHT22;6658;53.080;7.428;2023-06-22T03:44:01;16.00;99.90
13186;DHT22;6658;53.080;7.428;2023-06-22T03:46:27;16.10;99.90
13186;DHT22;6658;53.080;7.428;2023-06-22T03:48:53;16.10;99.90
13186;DHT22;6658;53.080;7.428;2023-06-22T03:51:19;16.20;99.90
13186;DHT22;6658;53.080;7.428;2023-06-22T03:53:48;16.30;99.90
13186;DHT22;6658;53.080;7.428;2023-06-22T03:56:14;16.30;99.90
13186;DHT22;6658;53.080;7.428;2023-06-22T03:58:45;16.40;99.90
13186;DHT22;6658;53.080;7.428;2023-06-22T04:01:11;16.40;99.90
13186;DHT22;6658;53.080;7.428;2023-06-22T04:03:37;16.40;99.90
13186;DHT22;6658;53.080;7.428;2023-06-22T04:06:03;16.40;99.90
13186;DHT22;6658;53.080;7.428;2023-06-22T04:08:30;16.40;99.90
13186;DHT22;6658;53.080;7.428;2023-06-22T04:10:55;16.40;99.90
13186;DHT22;6658;53.080;7.428;2023-06-22T04:13:22;16.50;99.90
13186;DHT22;6658;53.080;7.428;2023-06-22T04:15:47;16.50;99.90
13186;DHT22;6658;53.080;7.428;2023-06-22T04:18:13;16.60;99.90
13186;DHT22;6658;53.080;7.428;2023-06-22T04:20:39;16.60;99.90
13186;DHT22;6658;53.080;7.428;2023-06-22T04:23:04;16.70;99.90
13186;DHT22;6658;53.080;7.428;2023-06-22T04:25:30;16.70;99.90
13186;DHT22;6658;53.080;7.428;2023-06-22T04:27:56;16.80;99.90
13186;DHT22;6658;53.080;7.428;2023-06-22T04:30:22;16.80;99.90
13186;DHT22;6658;53.080;7.428;2023-06-22T04:32:48;16.80;99.90
13186;DHT22;6658;53.080;7.428;2023-06-22T04:35:24;16.90;99.90
13186;DHT22;6658;53.080;7.428;2023-06-22T04:37:50;17.00;99.90
13186;DHT22;6658;53.080;7.428;2023-06-22T04:40:15;16.90;99.90
13186;DHT22;6658;53.080;7.428;2023-06-22T04:42:41;17.10;99.90
13186;DHT22;6658;53.080;7.428;2023-06-22T04:45:17;17.30;99.90
13186;DHT22;6658;53.080;7.428;2023-06-22T04:47:43;17.40;99.90
13186;DHT22;6658;53.080;7.428;2023-06-22T04:50:11;17.60;99.90
13186;DHT22;6658;53.080;7.428;2023-06-22T04:52:37;17.70;99.90
13186;DHT22;6658;53.080;7.428;2023-06-22T04:55:04;17.90;99.90
13186;DHT22;6658;53.080;7.428;2023-06-22T04:57:29;18.10;99.90
13186;DHT22;6658;53.080;7.428;2023-06-22T05:00:01;18.20;99.90
13186;DHT22;6658;53.080;7.428;2023-06-22T05:02:36;18.50;99.90
13186;DHT22;6658;53.080;7.428;2023-06-22T05:05:03;18.70;99.90
13186;DHT22;6658;53.080;7.428;2023-06-22T05:07:35;18.80;99.90
13186;DHT22;6658;53.080;7.428;2023-06-22T05:10:02;19.00;99.90
13186;DHT22;6658;53.080;7.428;2023-06-22T05:12:29;19.10;99.90
13186;DHT22;6658;53.080;7.428;2023-06-22T05:14:55;19.30;99.90
13186;DHT22;6658;53.080;7.428;2023-06-22T05:17:21;19.70;99.90
13186;DHT22;6658;53.080;7.428;2023-06-22T05:19:47;20.00;99.90
13186;DHT22;6658;53.080;7.428;2023-06-22T05:22:17;20.30;99.90
13186;DHT22;6658;53.080;7.428;2023-06-22T05:24:43;20.50;99.90
13186;DHT22;6658;53.080;7.428;2023-06-22T05:27:09;20.70;99.90
13186;DHT22;6658;53.080;7.428;2023-06-22T05:29:37;20.80;99.90
13186;DHT22;6658;53.080;7.428;2023-06-22T05:32:03;21.00;99.90
13186;DHT22;6658;53.080;7.428;2023-06-22T05:34:29;21.20;99.90
13186;DHT22;6658;53.080;7.428;2023-06-22T05:36:54;21.50;99.90
13186;DHT22;6658;53.080;7.428;2023-06-22T05:39:20;21.80;99.90
13186;DHT22;6658;53.080;7.428;2023-06-22T05:41:46;21.80;99.90
13186;DHT22;6658;53.080;7.428;2023-06-22T05:44:12;22.10;99.90
13186;DHT22;6658;53.080;7.428;2023-06-22T05:46:42;22.10;99.90
13186;DHT22;6658;53.080;7.428;2023-06-22T05:49:12;22.30;99.90
13186;DHT22;6658;53.080;7.428;2023-06-22T05:51:39;22.20;99.90
13186;DHT22;6658;53.080;7.428;2023-06-22T05:54:05;22.40;99.90
13186;DHT22;6658;53.080;7.428;2023-06-22T05:56:30;22.80;99.90
13186;DHT22;6658;53.080;7.428;2023-06-22T05:58:56;23.10;99.90
13186;DHT22;6658;53.080;7.428;2023-06-22T06:01:22;23.00;99.90
13186;DHT22;6658;53.080;7.428;2023-06-22T06:03:48;23.30;99.90
13186;DHT22;6658;53.080;7.428;2023-06-22T06:06:15;23.30;99.90
13186;DHT22;6658;53.080;7.428;2023-06-22T06:08:41;23.20;99.90
13186;DHT22;6658;53.080;7.428;2023-06-22T06:11:07;23.20;99.90
13186;DHT22;6658;53.080;7.428;2023-06-22T06:13:33;23.40;99.90
13186;DHT22;6658;53.080;7.428;2023-06-22T06:15:58;23.50;99.90
13186;DHT22;6658;53.080;7.428;2023-06-22T06:18:24;23.50;99.90
13186;DHT22;6658;53.080;7.428;2023-06-22T06:20:50;23.50;99.90
13186;DHT22;6658;53.080;7.428;2023-06-22T06:23:16;23.40;99.90
13186;DHT22;6658;53.080;7.428;2023-06-22T06:25:42;23.20;99.90
13186;DHT22;6658;53.080;7.428;2023-06-22T06:28:07;23.10;99.90
13186;DHT22;6658;53.080;7.428;2023-06-22T06:30:33;23.20;99.90
13186;DHT22;6658;53.080;7.428;2023-06-22T06:32:59;23.20;99.90
13186;DHT22;6658;53.080;7.428;2023-06-22T06:35:24;23.40;99.90
13186;DHT22;6658;53.080;7.428;2023-06-22T06:37:50;23.80;99.90
13186;DHT22;6658;53.080;7.428;2023-06-22T06:40:18;24.10;99.90
13186;DHT22;6658;53.080;7.428;2023-06-22T06:42:45;24.10;99.90
13186;DHT22;6658;53.080;7.428;2023-06-22T06:45:20;24.10;99.90
13186;DHT22;6658;53.080;7.428;2023-06-22T06:47:48;24.40;99.90
13186;DHT22;6658;53.080;7.428;2023-06-22T06:50:14;24.60;99.90
13186;DHT22;6658;53.080;7.428;2023-06-22T06:52:39;24.80;99.90
13186;DHT22;6658;53.080;7.428;2023-06-22T06:55:06;24.50;99.90
13186;DHT22;6658;53.080;7.428;2023-06-22T06:57:36;24.50;99.90
13186;DHT22;6658;53.080;7.428;2023-06-22T07:00:06;24.50;99.90
13186;DHT22;6658;53.080;7.428;2023-06-22T07:02:35;24.60;99.90
13186;DHT22;6658;53.080;7.428;2023-06-22T07:05:01;24.60;99.90
13186;DHT22;6658;53.080;7.428;2023-06-22T07:07:29;24.70;99.90
13186;DHT22;6658;53.080;7.428;2023-06-22T07:09:55;24.60;99.90
13186;DHT22;6658;53.080;7.428;2023-06-22T07:12:21;24.70;99.90
13186;DHT22;6658;53.080;7.428;2023-06-22T07:14:47;24.70;99.90
13186;DHT22;6658;53.080;7.428;2023-06-22T07:17:12;24.90;99.90
13186;DHT22;6658;53.080;7.428;2023-06-22T07:19:38;25.10;99.90
13186;DHT22;6658;53.080;7.428;2023-06-22T07:22:04;25.10;99.90
13186;DHT22;6658;53.080;7.428;2023-06-22T07:24:30;25.00;99.90
13186;DHT22;6658;53.080;7.428;2023-06-22T07:26:55;25.40;99.90
13186;DHT22;6658;53.080;7.428;2023-06-22T07:29:23;25.50;99.90
13186;DHT22;6658;53.080;7.428;2023-06-22T07:31:50;25.30;99.90
13186;DHT22;6658;53.080;7.428;2023-06-22T07:34:17;25.30;99.90
13186;DHT22;6658;53.080;7.428;2023-06-22T07:36:43;24.90;99.90
13186;DHT22;6658;53.080;7.428;2023-06-22T07:39:09;24.80;99.90
13186;DHT22;6658;53.080;7.428;2023-06-22T07:41:35;24.80;99.90
13186;DHT22;6658;53.080;7.428;2023-06-22T07:44:02;25.00;99.90
13186;DHT22;6658;53.080;7.428;2023-06-22T07:46:29;25.60;99.90
13186;DHT22;6658;53.080;7.428;2023-06-22T07:48:56;25.80;99.90
13186;DHT22;6658;53.080;7.428;2023-06-22T07:51:23;25.90;99.90
13186;DHT22;6658;53.080;7.428;2023-06-22T07:53:49;25.70;99.90
13186;DHT22;6658;53.080;7.428;2023-06-22T07:56:14;25.60;99.90
13186;DHT22;6658;53.080;7.428;2023-06-22T07:58:45;25.60;99.90
13186;DHT22;6658;53.080;7.428;2023-06-22T08:01:11;25.50;99.90
13186;DHT22;6658;53.080;7.428;2023-06-22T08:03:37;25.70;99.90
13186;DHT22;6658;53.080;7.428;2023-06-22T08:06:03;25.80;99.90
13186;DHT22;6658;53.080;7.428;2023-06-22T08:08:29;25.80;99.90
13186;DHT22;6658;53.080;7.428;2023-06-22T08:10:55;26.00;99.90
13186;DHT22;6658;53.080;7.428;2023-06-22T08:13:20;26.00;99.90
13186;DHT22;6658;53.080;7.428;2023-06-22T08:15:46;26.30;99.90
13186;DHT22;6658;53.080;7.428;2023-06-22T08:18:12;26.50;99.90
13186;DHT22;6658;53.080;7.428;2023-06-22T08:20:38;26.60;99.90
13186;DHT22;6658;53.080;7.428;2023-06-22T08:23:03;26.80;99.90
13186;DHT22;6658;53.080;7.428;2023-06-22T08:25:34;26.90;99.90
13186;DHT22;6658;53.080;7.428;2023-06-22T08:28:01;27.20;99.90
13186;DHT22;6658;53.080;7.428;2023-06-22T08:30:27;27.30;99.90
13186;DHT22;6658;53.080;7.428;2023-06-22T08:32:53;27.50;99.90
13186;DHT22;6658;53.080;7.428;2023-06-22T08:35:19;27.50;99.90
13186;DHT22;6658;53.080;7.428;2023-06-22T08:37:46;27.50;99.90
13186;DHT22;6658;53.080;7.428;2023-06-22T08:40:18;27.40;99.90
13186;DHT22;6658;53.080;7.428;2023-06-22T08:42:46;27.50;99.90
13186;DHT22;6658;53.080;7.428;2023-06-22T08:45:12;27.40;99.90
13186;DHT22;6658;53.080;7.428;2023-06-22T08:47:42;27.40;99.90
13186;DHT22;6658;53.080;7.428;2023-06-22T08:50:11;27.60;99.90
13186;DHT22;6658;53.080;7.428;2023-06-22T08:52:39;27.70;99.90
13186;DHT22;6658;53.080;7.428;2023-06-22T08:55:07;27.80;99.90
13186;DHT22;6658;53.080;7.428;2023-06-22T08:57:34;27.80;99.90
13186;DHT22;6658;53.080;7.428;2023-06-22T08:59:59;27.80;99.90
13186;DHT22;6658;53.080;7.428;2023-06-22T09:02:28;27.80;99.90
13186;DHT22;6658;53.080;7.428;2023-06-22T09:04:57;27.80;99.90
13186;DHT22;6658;53.080;7.428;2023-06-22T09:07:23;27.70;99.90
13186;DHT22;6658;53.080;7.428;2023-06-22T09:09:50;27.70;99.90
13186;DHT22;6658;53.080;7.428;2023-06-22T09:12:17;27.70;99.90
13186;DHT22;6658;53.080;7.428;2023-06-22T09:14:45;27.90;99.90
13186;DHT22;6658;53.080;7.428;2023-06-22T09:17:12;28.40;99.90
13186;DHT22;6658;53.080;7.428;2023-06-22T09:19:38;28.50;99.90
13186;DHT22;6658;53.080;7.428;2023-06-22T09:22:04;28.60;99.90
13186;DHT22;6658;53.080;7.428;2023-06-22T09:24:32;28.60;99.90
13186;DHT22;6658;53.080;7.428;2023-06-22T09:26:57;28.70;99.90
13186;DHT22;6658;53.080;7.428;2023-06-22T09:29:23;28.60;99.90
13186;DHT22;6658;53.080;7.428;2023-06-22T09:31:49;28.60;99.90
13186;DHT22;6658;53.080;7.428;2023-06-22T09:34:14;28.70;99.90
13186;DHT22;6658;53.080;7.428;2023-06-22T09:36:41;29.00;99.90
13186;DHT22;6658;53.080;7.428;2023-06-22T09:39:07;29.00;99.90
13186;DHT22;6658;53.080;7.428;2023-06-22T09:41:32;29.10;99.90
13186;DHT22;6658;53.080;7.428;2023-06-22T09:43:58;29.30;99.90
13186;DHT22;6658;53.080;7.428;2023-06-22T09:46:24;29.80;99.90
13186;DHT22;6658;53.080;7.428;2023-06-22T09:48:53;30.00;99.90
13186;DHT22;6658;53.080;7.428;2023-06-22T09:51:19;29.50;99.90
13186;DHT22;6658;53.080;7.428;2023-06-22T09:53:47;29.30;99.90
13186;DHT22;6658;53.080;7.428;2023-06-22T09:56:13;29.30;99.90
13186;DHT22;6658;53.080;7.428;2023-06-22T09:58:44;29.40;99.90
13186;DHT22;6658;53.080;7.428;2023-06-22T10:01:11;29.30;99.90
13186;DHT22;6658;53.080;7.428;2023-06-22T10:03:37;29.60;99.90
13186;DHT22;6658;53.080;7.428;2023-06-22T10:06:03;30.00;99.90
13186;DHT22;6658;53.080;7.428;2023-06-22T10:08:29;30.30;99.90
13186;DHT22;6658;53.080;7.428;2023-06-22T10:10:55;30.40;99.90
13186;DHT22;6658;53.080;7.428;2023-06-22T10:13:20;30.50;99.90
13186;DHT22;6658;53.080;7.428;2023-06-22T10:15:46;30.10;99.90
13186;DHT22;6658;53.080;7.428;2023-06-22T10:18:16;29.80;99.90
13186;DHT22;6658;53.080;7.428;2023-06-22T10:20:43;29.90;99.90
13186;DHT22;6658;53.080;7.428;2023-06-22T10:23:08;29.90;99.90
13186;DHT22;6658;53.080;7.428;2023-06-22T10:25:34;30.30;99.90
13186;DHT22;6658;53.080;7.428;2023-06-22T10:28:00;30.40;99.90
13186;DHT22;6658;53.080;7.428;2023-06-22T10:30:25;30.70;99.90
13186;DHT22;6658;53.080;7.428;2023-06-22T10:32:51;30.80;99.70
13186;DHT22;6658;53.080;7.428;2023-06-22T10:35:17;30.80;99.20
13186;DHT22;6658;53.080;7.428;2023-06-22T10:37:44;31.20;99.10
13186;DHT22;6658;53.080;7.428;2023-06-22T10:40:14;31.10;99.90
13186;DHT22;6658;53.080;7.428;2023-06-22T10:42:40;31.60;99.20
13186;DHT22;6658;53.080;7.428;2023-06-22T10:45:08;31.50;97.40
13186;DHT22;6658;53.080;7.428;2023-06-22T10:47:35;31.00;98.40
13186;DHT22;6658;53.080;7.428;2023-06-22T10:50:02;30.60;99.80
13186;DHT22;6658;53.080;7.428;2023-06-22T10:52:27;30.00;99.80
13186;DHT22;6658;53.080;7.428;2023-06-22T10:54:53;29.50;99.90
13186;DHT22;6658;53.080;7.428;2023-06-22T10:57:19;29.30;99.90
13186;DHT22;6658;53.080;7.428;2023-06-22T10:59:45;29.00;99.90
13186;DHT22;6658;53.080;7.428;2023-06-22T11:02:10;28.90;99.90
13186;DHT22;6658;53.080;7.428;2023-06-22T11:04:36;29.40;99.90
13186;DHT22;6658;53.080;7.428;2023-06-22T11:07:02;29.80;99.90
13186;DHT22;6658;53.080;7.428;2023-06-22T11:09:27;29.90;99.90
13186;DHT22;6658;53.080;7.428;2023-06-22T11:11:53;30.00;99.90
13186;DHT22;6658;53.080;7.428;2023-06-22T11:14:19;30.10;99.90
13186;DHT22;6658;53.080;7.428;2023-06-22T11:16:45;30.20;99.90
13186;DHT22;6658;53.080;7.428;2023-06-22T11:19:12;30.20;99.90
13186;DHT22;6658;53.080;7.428;2023-06-22T11:21:37;30.10;99.10
13186;DHT22;6658;53.080;7.428;2023-06-22T11:24:03;30.00;99.90
13186;DHT22;6658;53.080;7.428;2023-06-22T11:26:29;29.90;99.90
13186;DHT22;6658;53.080;7.428;2023-06-22T11:28:57;29.60;99.90
13186;DHT22;6658;53.080;7.428;2023-06-22T11:31:23;29.10;99.90
13186;DHT22;6658;53.080;7.428;2023-06-22T11:33:49;28.90;99.90
13186;DHT22;6658;53.080;7.428;2023-06-22T11:36:15;29.00;99.90
13186;DHT22;6658;53.080;7.428;2023-06-22T11:38:41;29.00;99.90
13186;DHT22;6658;53.080;7.428;2023-06-22T11:41:09;29.10;99.90
13186;DHT22;6658;53.080;7.428;2023-06-22T11:43:35;29.30;99.90
13186;DHT22;6658;53.080;7.428;2023-06-22T11:46:02;29.50;99.90
13186;DHT22;6658;53.080;7.428;2023-06-22T11:48:28;29.80;99.90
13186;DHT22;6658;53.080;7.428;2023-06-22T11:50:54;30.00;99.90
13186;DHT22;6658;53.080;7.428;2023-06-22T11:53:21;29.90;99.90
13186;DHT22;6658;53.080;7.428;2023-06-22T11:55:47;29.60;99.90
13186;DHT22;6658;53.080;7.428;2023-06-22T11:58:13;29.40;99.90
13186;DHT22;6658;53.080;7.428;2023-06-22T12:00:39;29.30;99.90
13186;DHT22;6658;53.080;7.428;2023-06-22T12:03:04;29.00;99.90
13186;DHT22;6658;53.080;7.428;2023-06-22T12:05:30;29.00;99.90
13186;DHT22;6658;53.080;7.428;2023-06-22T12:07:56;29.10;99.90
13186;DHT22;6658;53.080;7.428;2023-06-22T12:10:22;29.00;99.90
13186;DHT22;6658;53.080;7.428;2023-06-22T12:12:48;29.20;99.90
13186;DHT22;6658;53.080;7.428;2023-06-22T12:15:14;29.30;99.90
13186;DHT22;6658;53.080;7.428;2023-06-22T12:17:40;29.30;99.90
13186;DHT22;6658;53.080;7.428;2023-06-22T12:20:07;29.30;99.90
13186;DHT22;6658;53.080;7.428;2023-06-22T12:22:33;29.10;99.90
13186;DHT22;6658;53.080;7.428;2023-06-22T12:24:59;28.90;99.90
13186;DHT22;6658;53.080;7.428;2023-06-22T12:27:25;28.80;99.90
13186;DHT22;6658;53.080;7.428;2023-06-22T12:29:51;28.70;99.90
13186;DHT22;6658;53.080;7.428;2023-06-22T12:32:17;28.70;99.90
13186;DHT22;6658;53.080;7.428;2023-06-22T12:34:43;28.80;99.90
13186;DHT22;6658;53.080;7.428;2023-06-22T12:37:09;28.60;99.90
13186;DHT22;6658;53.080;7.428;2023-06-22T12:39:36;28.60;99.90
13186;DHT22;6658;53.080;7.428;2023-06-22T12:42:02;28.50;99.90
13186;DHT22;6658;53.080;7.428;2023-06-22T12:44:28;28.60;99.90
13186;DHT22;6658;53.080;7.428;2023-06-22T12:46:54;28.50;99.90
13186;DHT22;6658;53.080;7.428;2023-06-22T12:49:20;28.40;99.90
13186;DHT22;6658;53.080;7.428;2023-06-22T12:51:45;28.60;99.90
13186;DHT22;6658;53.080;7.428;2023-06-22T12:54:11;28.50;99.90
13186;DHT22;6658;53.080;7.428;2023-06-22T12:56:38;28.50;99.90
13186;DHT22;6658;53.080;7.428;2023-06-22T12:59:04;28.40;99.90
13186;DHT22;6658;53.080;7.428;2023-06-22T13:01:30;28.50;99.90
13186;DHT22;6658;53.080;7.428;2023-06-22T13:04:00;28.40;99.90
13186;DHT22;6658;53.080;7.428;2023-06-22T13:06:26;28.40;99.90
13186;DHT22;6658;53.080;7.428;2023-06-22T13:08:52;28.30;99.90
13186;DHT22;6658;53.080;7.428;2023-06-22T13:11:18;28.20;99.90
13186;DHT22;6658;53.080;7.428;2023-06-22T13:13:45;28.30;99.90
13186;DHT22;6658;53.080;7.428;2023-06-22T13:16:11;28.30;99.90
13186;DHT22;6658;53.080;7.428;2023-06-22T13:18:36;28.20;99.90
13186;DHT22;6658;53.080;7.428;2023-06-22T13:21:03;28.20;99.90
13186;DHT22;6658;53.080;7.428;2023-06-22T13:23:29;28.10;99.90
13186;DHT22;6658;53.080;7.428;2023-06-22T13:25:55;28.20;99.90
13186;DHT22;6658;53.080;7.428;2023-06-22T13:28:20;28.30;99.90
13186;DHT22;6658;53.080;7.428;2023-06-22T13:30:47;28.30;99.90
13186;DHT22;6658;53.080;7.428;2023-06-22T13:33:16;28.20;99.90
13186;DHT22;6658;53.080;7.428;2023-06-22T13:35:42;28.10;99.90
13186;DHT22;6658;53.080;7.428;2023-06-22T13:38:09;28.00;99.90
13186;DHT22;6658;53.080;7.428;2023-06-22T13:40:35;27.80;99.90
13186;DHT22;6658;53.080;7.428;2023-06-22T13:43:01;27.70;99.90
13186;DHT22;6658;53.080;7.428;2023-06-22T13:45:27;27.50;99.90
13186;DHT22;6658;53.080;7.428;2023-06-22T13:47:53;27.30;99.90
13186;DHT22;6658;53.080;7.428;2023-06-22T13:50:19;26.90;99.90
13186;DHT22;6658;53.080;7.428;2023-06-22T13:52:44;26.80;99.90
13186;DHT22;6658;53.080;7.428;2023-06-22T13:55:10;26.60;99.90
13186;DHT22;6658;53.080;7.428;2023-06-22T13:57:36;26.40;99.90
13186;DHT22;6658;53.080;7.428;2023-06-22T14:00:03;26.30;99.90
13186;DHT22;6658;53.080;7.428;2023-06-22T14:02:30;26.30;99.90
13186;DHT22;6658;53.080;7.428;2023-06-22T14:04:56;26.30;99.90
13186;DHT22;6658;53.080;7.428;2023-06-22T14:07:22;26.20;99.90
13186;DHT22;6658;53.080;7.428;2023-06-22T14:09:50;26.10;99.90
13186;DHT22;6658;53.080;7.428;2023-06-22T14:12:16;26.00;99.90
13186;DHT22;6658;53.080;7.428;2023-06-22T14:14:43;25.90;99.90
13186;DHT22;6658;53.080;7.428;2023-06-22T14:17:09;25.90;99.90
13186;DHT22;6658;53.080;7.428;2023-06-22T14:19:35;25.80;99.90
13186;DHT22;6658;53.080;7.428;2023-06-22T14:22:01;25.80;99.90
13186;DHT22;6658;53.080;7.428;2023-06-22T14:24:27;25.80;99.90
13186;DHT22;6658;53.080;7.428;2023-06-22T14:26:53;25.90;99.90
13186;DHT22;6658;53.080;7.428;2023-06-22T14:29:19;25.90;99.90
13186;DHT22;6658;53.080;7.428;2023-06-22T14:31:45;25.80;99.90
13186;DHT22;6658;53.080;7.428;2023-06-22T14:34:15;25.90;99.90
13186;DHT22;6658;53.080;7.428;2023-06-22T14:36:41;25.90;99.90
13186;DHT22;6658;53.080;7.428;2023-06-22T14:39:08;25.80;99.90
13186;DHT22;6658;53.080;7.428;2023-06-22T14:41:34;25.80;99.90
13186;DHT22;6658;53.080;7.428;2023-06-22T14:43:59;25.70;99.90
13186;DHT22;6658;53.080;7.428;2023-06-22T14:46:25;25.70;99.90
13186;DHT22;6658;53.080;7.428;2023-06-22T14:48:51;25.70;99.90
13186;DHT22;6658;53.080;7.428;2023-06-22T14:51:16;25.80;99.90
13186;DHT22;6658;53.080;7.428;2023-06-22T14:53:44;25.90;99.90
13186;DHT22;6658;53.080;7.428;2023-06-22T14:56:09;25.80;99.90
13186;DHT22;6658;53.080;7.428;2023-06-22T14:58:35;25.60;99.90
13186;DHT22;6658;53.080;7.428;2023-06-22T15:01:02;25.50;99.90
13186;DHT22;6658;53.080;7.428;2023-06-22T15:03:28;25.30;99.90
13186;DHT22;6658;53.080;7.428;2023-06-22T15:05:56;25.10;99.90
13186;DHT22;6658;53.080;7.428;2023-06-22T15:08:22;25.00;99.90
13186;DHT22;6658;53.080;7.428;2023-06-22T15:10:47;24.90;99.90
13186;DHT22;6658;53.080;7.428;2023-06-22T15:13:13;24.90;99.90
13186;DHT22;6658;53.080;7.428;2023-06-22T15:15:39;24.80;99.90
13186;DHT22;6658;53.080;7.428;2023-06-22T15:18:05;24.90;99.90
13186;DHT22;6658;53.080;7.428;2023-06-22T15:20:31;24.90;99.90
13186;DHT22;6658;53.080;7.428;2023-06-22T15:22:57;24.90;99.90
13186;DHT22;6658;53.080;7.428;2023-06-22T15:25:23;24.90;99.90
13186;DHT22;6658;53.080;7.428;2023-06-22T15:27:49;24.70;99.90
13186;DHT22;6658;53.080;7.428;2023-06-22T15:30:15;24.60;99.90
13186;DHT22;6658;53.080;7.428;2023-06-22T15:32:44;24.50;99.90
13186;DHT22;6658;53.080;7.428;2023-06-22T15:35:10;24.40;99.90
13186;DHT22;6658;53.080;7.428;2023-06-22T15:37:36;24.30;99.90
13186;DHT22;6658;53.080;7.428;2023-06-22T15:40:04;24.20;99.90
13186;DHT22;6658;53.080;7.428;2023-06-22T15:42:30;24.00;99.90
13186;DHT22;6658;53.080;7.428;2023-06-22T15:44:56;24.00;99.90
13186;DHT22;6658;53.080;7.428;2023-06-22T15:47:22;23.80;99.90
13186;DHT22;6658;53.080;7.428;2023-06-22T15:49:49;23.80;99.90